Time;durP1;ratioP1;P1;durP2;ratioP2;P2;SDS_P1;SDS_P2;PMS_P1;PMS_P2;Temp;Humidity;BMP_temperature;BMP_pressure;BME280_temperature;BME280_humidity;BME280_pressure;Samples;Min_cycle;Max_cycle;Signal;HPM_P1;HPM_P2
2023/02/20 00:00:37;;;;;;;16.25;7.50;;;-0.70;99.90;;;;;;5094148;28;20016;-80
2023/02/20 00:03:04;;;;;;;14.90;6.97;;;-0.70;99.90;;;;;;5094147;28;20048;-80
2023/02/20 00:05:30;;;;;;;14.27;6.13;;;-0.70;99.90;;;;;;5093992;28;20028;-80
2023/02/20 00:07:55;;;;;;;15.30;8.25;;;-0.70;99.90;;;;;;5095371;28;20091;-80
2023/02/20 00:10:23;;;;;;;15.50;8.32;;;-0.70;99.90;;;;;;5093729;28;20068;-80
2023/02/20 00:12:48;;;;;;;12.82;7.15;;;-0.70;99.90;;;;;;5093929;28;20023;-79
2023/02/20 00:15:18;;;;;;;15.88;8.50;;;-0.70;99.90;;;;;;5095093;28;20031;-80
2023/02/20 00:17:46;;;;;;;18.45;8.73;;;-0.70;99.90;;;;;;5095055;28;20093;-80
2023/02/20 00:20:14;;;;;;;14.15;7.82;;;-0.70;99.90;;;;;;5093866;28;20429;-80
2023/02/20 00:22:39;;;;;;;23.02;9.07;;;-0.70;99.90;;;;;;5094185;28;20601;-80
2023/02/20 00:25:05;;;;;;;19.75;10.38;;;-0.70;99.90;;;;;;5094989;28;20517;-80
2023/02/20 00:27:31;;;;;;;18.27;9.25;;;-0.70;99.90;;;;;;5093645;28;20036;-80
2023/02/20 00:29:56;;;;;;;21.85;11.35;;;-0.70;99.90;;;;;;5093192;28;20047;-80
2023/02/20 00:32:22;;;;;;;21.50;10.85;;;-0.70;99.90;;;;;;5095171;28;20157;-81
2023/02/20 00:34:48;;;;;;;19.33;9.30;;;-0.70;99.90;;;;;;5076539;28;20031;-81
2023/02/20 00:37:13;;;;;;;18.42;9.85;;;-0.70;99.90;;;;;;5093108;28;20043;-81
2023/02/20 00:39:39;;;;;;;19.08;9.60;;;-0.70;99.90;;;;;;5093496;28;20027;-81
2023/02/20 00:42:04;;;;;;;24.65;12.45;;;-0.70;99.90;;;;;;5095332;28;20038;-81
2023/02/20 00:44:30;;;;;;;23.70;10.52;;;-0.70;99.90;;;;;;5093847;28;20065;-80
2023/02/20 00:46:56;;;;;;;25.35;10.77;;;-0.70;99.90;;;;;;5093738;28;20067;-80
2023/02/20 00:49:21;;;;;;;16.98;8.85;;;-0.70;99.90;;;;;;5093781;28;20035;-80
2023/02/20 00:51:48;;;;;;;24.30;10.20;;;-0.70;99.90;;;;;;5095249;28;20504;-81
2023/02/20 00:54:14;;;;;;;26.05;11.90;;;-0.70;99.90;;;;;;5095110;28;20039;-80
2023/02/20 00:56:40;;;;;;;26.10;12.20;;;-0.70;99.90;;;;;;5095192;28;20077;-82
2023/02/20 00:59:06;;;;;;;21.98;10.93;;;-0.70;99.90;;;;;;5094481;28;20048;-82
2023/02/20 01:01:31;;;;;;;20.40;10.63;;;-0.70;99.90;;;;;;5094631;28;20059;-83
2023/02/20 01:03:57;;;;;;;21.05;11.95;;;-0.70;99.90;;;;;;5094631;28;20374;-82
2023/02/20 01:06:23;;;;;;;27.23;12.23;;;-0.80;99.90;;;;;;5095083;28;20103;-81
2023/02/20 01:08:48;;;;;;;25.73;11.40;;;-0.80;99.90;;;;;;5094031;28;20470;-81
2023/02/20 01:11:14;;;;;;;20.48;11.27;;;-0.80;99.90;;;;;;5093175;28;20081;-81
2023/02/20 01:13:40;;;;;;;25.90;12.45;;;-0.80;99.90;;;;;;5094459;28;20035;-82
2023/02/20 01:16:06;;;;;;;20.25;11.43;;;-0.80;99.90;;;;;;5094758;28;20566;-80
2023/02/20 01:18:32;;;;;;;21.17;11.68;;;-0.80;99.90;;;;;;5093225;28;20020;-80
2023/02/20 01:20:57;;;;;;;21.80;10.40;;;-0.90;99.90;;;;;;5094348;28;20069;-82
2023/02/20 01:23:23;;;;;;;18.88;11.27;;;-0.80;99.90;;;;;;5094269;28;20024;-81
2023/02/20 01:25:49;;;;;;;18.08;10.05;;;-0.80;99.90;;;;;;5094352;28;20028;-82
2023/02/20 01:28:15;;;;;;;25.98;11.90;;;-0.80;99.90;;;;;;5092710;28;20054;-80
2023/02/20 01:30:41;;;;;;;21.90;10.68;;;-0.80;99.90;;;;;;5093413;28;20027;-80
2023/02/20 01:33:06;;;;;;;23.73;10.65;;;-0.80;99.90;;;;;;5092836;28;20351;-83
2023/02/20 01:35:32;;;;;;;23.30;10.65;;;-0.70;99.90;;;;;;5094154;28;20099;-80
2023/02/20 01:37:59;;;;;;;20.75;10.10;;;-0.70;99.90;;;;;;5093005;28;20065;-80
2023/02/20 01:40:26;;;;;;;27.50;10.82;;;-0.70;99.90;;;;;;5093067;28;20073;-83
2023/02/20 01:42:52;;;;;;;15.38;9.95;;;-0.70;99.90;;;;;;5092838;28;20519;-80
2023/02/20 01:45:18;;;;;;;18.73;9.82;;;-0.70;99.90;;;;;;5093994;28;20028;-81
2023/02/20 01:47:44;;;;;;;20.35;9.57;;;-0.70;99.90;;;;;;5092577;28;20395;-81
2023/02/20 01:50:11;;;;;;;23.33;9.43;;;-0.70;99.90;;;;;;5092955;28;20442;-81
2023/02/20 01:52:37;;;;;;;23.10;11.10;;;-0.70;99.90;;;;;;5092959;28;20095;-81
2023/02/20 01:55:17;;;;;;;24.48;10.38;;;-0.70;99.90;;;;;;5092583;28;20419;-82
2023/02/20 01:57:50;;;;;;;18.60;10.20;;;-0.70;99.90;;;;;;5092129;28;20039;-81
2023/02/20 02:00:19;;;;;;;19.92;9.32;;;-0.70;99.90;;;;;;5093006;28;20020;-81
2023/02/20 02:03:05;;;;;;;27.23;10.63;;;-0.70;99.90;;;;;;5093932;28;20028;-81
2023/02/20 02:05:32;;;;;;;23.38;10.23;;;-0.70;99.90;;;;;;5108958;28;20074;-80
2023/02/20 02:08:00;;;;;;;18.95;10.38;;;-0.70;99.90;;;;;;5093707;28;20016;-80
2023/02/20 02:10:31;;;;;;;15.65;9.40;;;-0.70;99.90;;;;;;5093911;28;20115;-80
2023/02/20 02:12:57;;;;;;;15.88;10.10;;;-0.60;99.90;;;;;;5093853;28;20035;-83
2023/02/20 02:15:23;;;;;;;21.60;10.60;;;-0.70;99.90;;;;;;5093195;28;20485;-81
2023/02/20 02:18:15;;;;;;;20.67;10.55;;;-0.60;99.90;;;;;;5093385;28;20499;-82
2023/02/20 02:20:46;;;;;;;20.00;10.93;;;-0.60;99.90;;;;;;5092600;28;20522;-82
2023/02/20 02:23:30;;;;;;;33.92;14.60;;;-0.60;99.90;;;;;;5093039;28;20024;-82
2023/02/20 02:26:14;;;;;;;18.25;10.05;;;-0.60;99.90;;;;;;5093078;28;20024;-81
2023/02/20 02:29:11;;;;;;;17.70;8.82;;;-0.60;99.90;;;;;;5093094;28;20056;-82
2023/02/20 02:31:59;;;;;;;13.80;8.45;;;-0.60;99.90;;;;;;5093040;28;20119;-82
2023/02/20 02:34:50;;;;;;;19.63;8.02;;;-0.60;99.90;;;;;;5092388;28;20026;-81
2023/02/20 02:37:32;;;;;;;42.35;11.50;;;-0.60;99.90;;;;;;5093650;28;20028;-81
2023/02/20 02:40:03;;;;;;;15.73;8.07;;;-0.60;99.90;;;;;;5093385;28;20024;-81
2023/02/20 02:42:32;;;;;;;19.38;8.20;;;-0.60;99.90;;;;;;5092954;28;20472;-80
2023/02/20 02:45:02;;;;;;;13.07;8.32;;;-0.60;99.90;;;;;;5092280;28;20057;-82
2023/02/20 02:47:39;;;;;;;17.20;8.93;;;-0.60;99.90;;;;;;5091886;28;20392;-82
2023/02/20 02:50:11;;;;;;;13.98;7.20;;;-0.60;99.90;;;;;;5093013;28;20393;-81
2023/02/20 02:52:56;;;;;;;13.50;7.57;;;-0.50;99.90;;;;;;5091402;28;20021;-82
2023/02/20 02:55:28;;;;;;;11.23;6.72;;;-0.50;99.90;;;;;;5091768;28;20043;-82
2023/02/20 02:57:54;;;;;;;12.73;7.60;;;-0.50;99.90;;;;;;5091785;28;20017;-82
2023/02/20 03:00:28;;;;;;;14.30;7.35;;;-0.50;99.90;;;;;;5093090;28;20034;-80
2023/02/20 03:02:54;;;;;;;38.63;16.05;;;-0.50;99.90;;;;;;5093171;28;20080;-81
2023/02/20 03:05:23;;;;;;;20.08;9.05;;;-0.50;99.90;;;;;;5093100;28;20099;-81
2023/02/20 03:07:54;;;;;;;20.85;11.55;;;-0.50;99.90;;;;;;5093067;28;20398;-80
2023/02/20 03:10:30;;;;;;;18.98;8.52;;;-0.50;99.90;;;;;;5095692;28;20036;-80
2023/02/20 03:13:01;;;;;;;13.07;7.53;;;-0.50;99.90;;;;;;5097004;28;20056;-81
2023/02/20 03:15:36;;;;;;;16.92;7.60;;;-0.50;99.90;;;;;;5097215;28;20016;-80
2023/02/20 03:18:14;;;;;;;14.82;8.02;;;-0.50;99.90;;;;;;5096983;28;20020;-81
2023/02/20 03:20:54;;;;;;;18.25;8.07;;;-0.60;99.90;;;;;;5096950;28;20104;-80
2023/02/20 03:23:32;;;;;;;17.65;8.07;;;-0.60;99.90;;;;;;5095454;28;20106;-80
2023/02/20 03:26:08;;;;;;;17.45;8.65;;;-0.60;99.90;;;;;;5095188;28;20017;-80
2023/02/20 03:28:43;;;;;;;18.33;8.48;;;-0.60;99.90;;;;;;5096424;28;20083;-80
2023/02/20 03:31:18;;;;;;;18.30;9.00;;;-0.60;99.90;;;;;;5096542;28;20039;-81
2023/02/20 03:45:28;;;;;;;20.67;11.13;;;-0.70;99.90;;;;;;5096780;28;20090;-80
2023/02/20 03:47:58;;;;;;;20.48;10.70;;;-0.80;99.90;;;;;;5096197;28;20016;-80
2023/02/20 03:50:24;;;;;;;23.25;9.93;;;-0.80;99.90;;;;;;5096305;28;20036;-80
2023/02/20 03:52:50;;;;;;;16.48;8.65;;;-0.90;99.90;;;;;;5096408;28;20028;-82
2023/02/20 03:55:16;;;;;;;21.17;9.60;;;-0.90;99.90;;;;;;5095282;28;20472;-83
2023/02/20 03:57:47;;;;;;;17.63;9.98;;;-0.90;99.90;;;;;;5095110;28;20020;-81
2023/02/20 04:00:19;;;;;;;16.33;9.20;;;-1.00;99.90;;;;;;5095753;28;20473;-82
2023/02/20 04:02:48;;;;;;;19.50;10.25;;;-1.10;99.90;;;;;;5094457;28;20016;-83
2023/02/20 04:05:19;;;;;;;21.40;9.65;;;-1.10;99.90;;;;;;5094811;28;20035;-82
2023/02/20 04:08:00;;;;;;;17.98;9.30;;;-1.10;99.90;;;;;;5094264;28;20046;-82
2023/02/20 04:10:30;;;;;;;18.48;9.85;;;-1.10;99.90;;;;;;5095342;28;20178;-82
2023/02/20 04:12:57;;;;;;;18.75;9.32;;;-1.10;99.90;;;;;;5095780;28;20068;-82
2023/02/20 04:15:24;;;;;;;18.38;9.60;;;-1.20;99.90;;;;;;5095640;28;20032;-82
2023/02/20 04:17:55;;;;;;;20.08;10.15;;;-1.20;99.90;;;;;;5095783;28;20066;-82
2023/02/20 04:20:21;;;;;;;19.85;10.32;;;-1.30;99.90;;;;;;5094693;28;20063;-82
2023/02/20 04:22:49;;;;;;;18.83;11.15;;;-1.30;99.90;;;;;;5095809;28;20058;-82
2023/02/20 04:25:36;;;;;;;59.60;27.50;;;-1.30;99.90;;;;;;5095172;28;20376;-83
2023/02/20 04:28:04;;;;;;;71.22;32.90;;;-1.30;99.90;;;;;;5094123;28;20024;-83
2023/02/20 04:30:30;;;;;;;75.38;33.15;;;-1.30;99.90;;;;;;5093910;28;20235;-83
2023/02/20 04:32:56;;;;;;;54.22;25.48;;;-1.30;99.90;;;;;;5094111;28;20031;-80
2023/02/20 04:35:22;;;;;;;27.67;14.50;;;-1.30;99.90;;;;;;5095779;28;20027;-82
2023/02/20 04:37:47;;;;;;;58.67;26.77;;;-1.30;99.90;;;;;;5095258;28;20078;-82
2023/02/20 04:40:15;;;;;;;61.40;28.23;;;-1.40;99.90;;;;;;5093955;28;20024;-82
2023/02/20 04:42:41;;;;;;;60.85;29.13;;;-1.40;99.90;;;;;;5094994;28;20404;-82
2023/02/20 04:45:06;;;;;;;35.00;17.75;;;-1.40;99.90;;;;;;5094916;28;20020;-81
2023/02/20 04:47:32;;;;;;;26.75;14.77;;;-1.50;99.90;;;;;;5093839;28;20058;-82
2023/02/20 04:49:58;;;;;;;25.92;14.57;;;-1.60;99.90;;;;;;5093751;28;20039;-81
2023/02/20 04:52:23;;;;;;;39.53;20.63;;;-1.60;99.90;;;;;;5095147;28;20047;-82
2023/02/20 04:54:50;;;;;;;44.22;21.60;;;-1.60;99.90;;;;;;5094943;28;20061;-81
2023/02/20 04:57:16;;;;;;;41.33;17.38;;;-1.70;99.90;;;;;;5093648;28;20016;-81
2023/02/20 04:59:42;;;;;;;40.85;20.00;;;-1.70;99.90;;;;;;5094774;28;20024;-81
2023/02/20 05:02:08;;;;;;;50.25;24.92;;;-1.70;99.90;;;;;;5093519;28;20016;-82
2023/02/20 05:04:34;;;;;;;59.03;29.27;;;-1.70;99.90;;;;;;5094837;28;20024;-82
2023/02/20 05:07:00;;;;;;;45.80;23.13;;;-1.70;99.90;;;;;;5093508;28;20052;-83
2023/02/20 05:09:26;;;;;;;52.17;25.83;;;-1.80;99.90;;;;;;5094463;28;20071;-81
2023/02/20 05:11:52;;;;;;;43.75;23.17;;;-1.80;99.90;;;;;;5094759;28;20031;-81
2023/02/20 05:14:19;;;;;;;44.35;23.10;;;-1.90;99.90;;;;;;5094606;28;20023;-82
2023/02/20 05:16:45;;;;;;;42.15;22.05;;;-1.90;99.90;;;;;;5093530;28;20042;-82
2023/02/20 05:19:11;;;;;;;63.67;33.53;;;-1.90;99.90;;;;;;5093097;28;20028;-82
2023/02/20 05:24:24;;;;;;;85.85;40.95;;;-1.80;99.90;;;;;;5094640;28;20032;-80
2023/02/20 05:26:51;;;;;;;60.50;31.27;;;-1.80;99.90;;;;;;5093512;28;20012;-80
2023/02/20 05:29:17;;;;;;;40.83;20.23;;;-1.90;99.90;;;;;;5094279;28;20083;-79
2023/02/20 05:31:42;;;;;;;33.45;17.73;;;-1.80;99.90;;;;;;5094162;28;20064;-81
2023/02/20 05:34:08;;;;;;;34.25;17.52;;;-1.80;99.90;;;;;;5093146;28;20496;-80
2023/02/20 05:36:34;;;;;;;33.05;17.35;;;-1.80;99.90;;;;;;5093187;28;20028;-80
2023/02/20 05:38:59;;;;;;;25.95;15.15;;;-1.70;99.90;;;;;;5094417;28;20028;-81
2023/02/20 05:41:25;;;;;;;29.63;15.15;;;-1.70;99.90;;;;;;5092674;28;20065;-83
2023/02/20 05:43:53;;;;;;;31.55;16.05;;;-1.60;99.90;;;;;;5093945;28;20488;-81
2023/02/20 05:46:19;;;;;;;27.20;16.30;;;-1.60;99.90;;;;;;5093269;28;20408;-82
2023/02/20 05:48:49;;;;;;;28.85;15.00;;;-1.60;99.90;;;;;;5093839;28;20031;-81
2023/02/20 05:51:26;;;;;;;25.73;15.15;;;-1.60;99.90;;;;;;5092496;28;20035;-83
2023/02/20 05:53:52;;;;;;;24.88;13.60;;;-1.50;99.90;;;;;;5093628;28;20095;-82
2023/02/20 05:56:18;;;;;;;26.80;13.43;;;-1.50;99.90;;;;;;5093684;28;20493;-83
2023/02/20 05:58:44;;;;;;;24.05;14.00;;;-1.50;99.90;;;;;;5092553;28;20072;-83
2023/02/20 06:01:24;;;;;;;23.10;13.65;;;-1.40;99.90;;;;;;5093367;28;20395;-81
2023/02/20 06:03:51;;;;;;;25.08;14.00;;;-1.40;99.90;;;;;;5093811;28;20020;-83
2023/02/20 06:06:17;;;;;;;26.50;15.32;;;-1.40;99.90;;;;;;5094008;28;20436;-83
2023/02/20 06:08:43;;;;;;;29.15;14.57;;;-1.30;99.90;;;;;;5092291;28;20023;-83
2023/02/20 06:11:11;;;;;;;29.25;14.45;;;-1.30;99.90;;;;;;5093327;28;20149;-83
2023/02/20 06:13:40;;;;;;;26.83;14.43;;;-1.30;99.90;;;;;;5092146;28;20059;-83
2023/02/20 06:16:06;;;;;;;30.58;15.90;;;-1.20;99.90;;;;;;5093147;28;20047;-83
2023/02/20 06:18:32;;;;;;;31.05;14.85;;;-1.20;99.90;;;;;;5093374;28;20113;-83
2023/02/20 06:20:57;;;;;;;29.80;15.13;;;-1.10;99.90;;;;;;5093445;28;20028;-83
2023/02/20 06:23:23;;;;;;;33.03;16.10;;;-1.10;99.90;;;;;;5092008;28;20107;-83
2023/02/20 06:25:49;;;;;;;28.25;13.52;;;-1.10;99.90;;;;;;5093186;28;20031;-83
2023/02/20 06:28:15;;;;;;;21.83;14.57;;;-1.00;99.90;;;;;;5092659;28;20069;-83
2023/02/20 06:30:40;;;;;;;30.23;14.48;;;-0.90;99.90;;;;;;5093212;28;20118;-83
2023/02/20 06:33:06;;;;;;;30.95;13.50;;;-0.90;99.90;;;;;;5092968;28;20024;-83
2023/02/20 06:35:31;;;;;;;23.60;13.10;;;-0.80;99.90;;;;;;5093345;28;20473;-83
2023/02/20 06:37:59;;;;;;;29.77;13.02;;;-0.80;99.90;;;;;;5091796;28;20024;-83
2023/02/20 06:40:24;;;;;;;20.73;12.85;;;-0.80;99.90;;;;;;5092858;28;20012;-83
2023/02/20 06:42:50;;;;;;;30.20;14.65;;;-0.70;99.90;;;;;;5091574;28;20441;-83
2023/02/20 06:45:15;;;;;;;30.15;14.45;;;-0.70;99.90;;;;;;5091743;28;20017;-82
2023/02/20 06:47:41;;;;;;;29.38;13.65;;;-0.60;99.90;;;;;;5093401;28;20369;-81
2023/02/20 06:50:07;;;;;;;22.52;11.02;;;-0.60;99.90;;;;;;5092878;28;20035;-83
2023/02/20 06:52:33;;;;;;;24.85;11.35;;;-0.50;99.90;;;;;;5091708;28;20024;-83
2023/02/20 06:54:59;;;;;;;24.30;12.20;;;-0.50;99.90;;;;;;5093022;28;20394;-83
2023/02/20 06:57:24;;;;;;;24.17;11.25;;;-0.40;99.90;;;;;;5092996;28;20024;-81
2023/02/20 06:59:50;;;;;;;18.27;10.07;;;-0.40;99.90;;;;;;5092953;28;20461;-82
2023/02/20 07:02:17;;;;;;;22.98;10.95;;;-0.40;99.90;;;;;;5091541;28;20531;-82
2023/02/20 07:04:46;;;;;;;17.63;11.50;;;-0.40;99.90;;;;;;5091563;28;20016;-82
2023/02/20 07:07:11;;;;;;;22.90;11.57;;;-0.30;99.90;;;;;;5092949;28;20377;-82
2023/02/20 07:09:37;;;;;;;21.95;10.68;;;-0.30;99.90;;;;;;5088836;28;20030;-82
2023/02/20 07:12:30;;;;;;;20.00;11.60;;;-0.30;99.90;;;;;;5088064;28;20394;-82
2023/02/20 07:14:55;;;;;;;17.38;10.77;;;-0.20;99.90;;;;;;5071485;28;20038;-82
2023/02/20 07:17:31;;;;;;;25.73;11.82;;;-0.20;99.90;;;;;;5090463;28;20102;-82
2023/02/20 07:19:58;;;;;;;18.33;10.80;;;-0.10;99.90;;;;;;5090031;28;20089;-82
2023/02/20 07:22:25;;;;;;;26.15;11.88;;;0.00;99.90;;;;;;5091632;28;20028;-82
2023/02/20 07:24:51;;;;;;;24.25;12.52;;;0.00;99.90;;;;;;5091626;28;20051;-81
2023/02/20 07:27:17;;;;;;;18.27;11.00;;;0.10;99.90;;;;;;5090016;28;20047;-82
2023/02/20 07:29:49;;;;;;;26.77;11.10;;;0.20;99.90;;;;;;5089096;28;20044;-82
2023/02/20 07:32:19;;;;;;;16.65;10.95;;;0.30;99.90;;;;;;5089145;28;20030;-83
2023/02/20 07:34:48;;;;;;;21.83;10.77;;;0.30;99.90;;;;;;5088908;28;20046;-80
2023/02/20 07:37:17;;;;;;;20.38;11.73;;;0.50;99.90;;;;;;5088900;28;20481;-81
2023/02/20 07:40:05;;;;;;;15.45;9.77;;;0.50;99.90;;;;;;5090646;28;20099;-82
2023/02/20 07:42:31;;;;;;;23.52;10.27;;;0.60;99.90;;;;;;5106509;28;20031;-82
2023/02/20 07:44:57;;;;;;;15.48;8.80;;;0.70;99.90;;;;;;5048002;28;20166;-81
2023/02/20 07:47:22;;;;;;;16.73;9.63;;;0.70;99.90;;;;;;5048090;28;20041;-82
2023/02/20 07:49:50;;;;;;;35.85;12.38;;;0.70;99.90;;;;;;5049153;28;20154;-82
2023/02/20 07:52:19;;;;;;;16.70;9.57;;;0.70;99.90;;;;;;5048459;28;20026;-82
2023/02/20 07:54:48;;;;;;;19.60;10.20;;;0.70;99.90;;;;;;5048736;28;20123;-81
2023/02/20 07:57:14;;;;;;;21.80;9.82;;;0.70;99.90;;;;;;5033453;28;20036;-81
2023/02/20 07:59:40;;;;;;;19.35;10.25;;;0.70;99.90;;;;;;5051620;28;20037;-81
2023/02/20 08:02:06;;;;;;;28.13;11.13;;;0.70;99.90;;;;;;5050691;28;20036;-80
2023/02/20 08:04:46;;;;;;;17.42;10.60;;;0.70;99.90;;;;;;5050078;28;20029;-81
2023/02/20 08:07:12;;;;;;;17.60;9.32;;;0.80;99.90;;;;;;5050326;28;20044;-81
2023/02/20 08:09:38;;;;;;;15.75;9.00;;;0.70;99.90;;;;;;5051152;28;20021;-81
2023/02/20 08:12:03;;;;;;;20.42;9.77;;;0.80;99.90;;;;;;5051135;28;20147;-80
2023/02/20 08:14:30;;;;;;;25.90;10.40;;;0.90;99.90;;;;;;5049546;28;20434;-78
2023/02/20 08:16:55;;;;;;;17.08;10.18;;;1.00;99.90;;;;;;5071005;28;20494;-79
2023/02/20 08:19:21;;;;;;;19.58;11.52;;;1.00;99.90;;;;;;5099024;28;20024;-79
2023/02/20 08:21:46;;;;;;;23.95;11.18;;;1.00;99.90;;;;;;5091822;28;20032;-79
2023/02/20 08:24:12;;;;;;;18.42;10.90;;;1.10;99.90;;;;;;5092979;28;20119;-80
2023/02/20 08:26:45;;;;;;;20.27;11.32;;;1.20;99.90;;;;;;5091706;28;20070;-80
2023/02/20 08:29:10;;;;;;;;;;;1.20;99.90;;;;;;5100131;28;20530;-80
2023/02/20 08:31:36;;;;;;;21.92;12.35;;;1.20;99.90;;;;;;5092639;28;19920;-80
2023/02/20 08:34:02;;;;;;;20.40;11.32;;;1.30;99.90;;;;;;5093381;28;20039;-80
2023/02/20 08:36:27;;;;;;;27.13;14.23;;;1.40;99.90;;;;;;5091621;28;20036;-79
2023/02/20 08:38:53;;;;;;;17.05;11.20;;;1.50;99.90;;;;;;5091267;28;20028;-79
2023/02/20 08:41:19;;;;;;;26.27;12.32;;;1.60;99.90;;;;;;5092006;28;20028;-79
2023/02/20 08:43:45;;;;;;;21.75;11.43;;;1.60;99.90;;;;;;5091478;28;20346;-80
2023/02/20 08:46:11;;;;;;;20.17;11.55;;;1.70;99.90;;;;;;5090916;28;20440;-80
2023/02/20 08:48:36;;;;;;;18.80;11.35;;;1.80;99.90;;;;;;5092445;28;20016;-79
2023/02/20 08:51:04;;;;;;;20.45;11.07;;;1.90;99.90;;;;;;5091149;28;20036;-79
2023/02/20 08:53:29;;;;;;;24.27;12.32;;;1.90;99.90;;;;;;5091037;28;20024;-79
2023/02/20 08:55:55;;;;;;;22.00;11.50;;;2.00;99.90;;;;;;5092112;28;20024;-80
2023/02/20 08:58:23;;;;;;;21.27;11.32;;;2.20;99.90;;;;;;5090889;28;20051;-80
2023/02/20 09:00:49;;;;;;;21.67;11.82;;;2.30;99.90;;;;;;5092427;28;20081;-79
2023/02/20 09:03:15;;;;;;;25.77;13.63;;;2.30;99.90;;;;;;5091727;28;20386;-79
2023/02/20 09:05:42;;;;;;;21.95;11.40;;;2.30;99.90;;;;;;5091797;28;20031;-79
2023/02/20 09:08:08;;;;;;;23.17;12.95;;;2.40;99.90;;;;;;5091218;28;20107;-79
2023/02/20 09:10:34;;;;;;;28.80;12.00;;;2.50;99.90;;;;;;5090733;28;20043;-79
2023/02/20 09:13:00;;;;;;;20.60;11.88;;;2.60;99.90;;;;;;5089053;28;20040;-79
2023/02/20 09:15:25;;;;;;;19.33;11.50;;;2.70;99.90;;;;;;5086565;28;20035;-79
2023/02/20 09:17:52;;;;;;;20.60;12.07;;;2.80;99.90;;;;;;5086293;28;20032;-79
2023/02/20 09:20:22;;;;;;;19.98;11.23;;;2.90;99.90;;;;;;5088502;28;20039;-80
2023/02/20 09:22:49;;;;;;;26.67;14.10;;;2.90;99.90;;;;;;5088360;28;20039;-80
2023/02/20 09:25:16;;;;;;;25.50;11.55;;;3.00;99.90;;;;;;5087279;28;20032;-80
2023/02/20 09:27:41;;;;;;;18.20;11.15;;;3.00;99.90;;;;;;5103220;28;20032;-79
2023/02/20 09:30:08;;;;;;;30.65;14.02;;;3.00;99.90;;;;;;5087865;28;20048;-80
2023/02/20 09:32:33;;;;;;;16.50;10.82;;;3.10;99.90;;;;;;5088270;28;20036;-79
2023/02/20 09:34:59;;;;;;;14.25;9.35;;;3.10;99.90;;;;;;5088264;28;20035;-80
2023/02/20 09:37:25;;;;;;;15.88;9.85;;;3.20;99.90;;;;;;5087941;28;20136;-81
2023/02/20 09:39:50;;;;;;;22.15;13.38;;;3.20;99.90;;;;;;5087136;28;20087;-81
2023/02/20 09:43:05;;;;;;;15.63;9.23;;;3.20;99.90;;;;;;5090089;28;20032;-81
2023/02/20 09:45:33;;;;;;;13.88;8.80;;;3.20;99.90;;;;;;5073234;28;20047;-82
2023/02/20 09:48:01;;;;;;;12.43;8.35;;;3.20;99.90;;;;;;5088722;28;20084;-82
2023/02/20 09:50:52;;;;;;;30.05;15.40;;;3.20;99.90;;;;;;5089644;28;20076;-82
2023/02/20 09:53:29;;;;;;;17.20;9.15;;;3.20;99.90;;;;;;5089456;28;20036;-82
2023/02/20 09:55:56;;;;;;;15.18;7.95;;;3.20;99.90;;;;;;5089233;28;20354;-82
2023/02/20 09:58:37;;;;;;;18.88;9.75;;;3.10;99.90;;;;;;5089109;28;20433;-83
2023/02/20 10:01:03;;;;;;;16.08;7.75;;;3.00;99.90;;;;;;5090144;28;20032;-82
2023/02/20 10:03:51;;;;;;;16.35;8.93;;;3.00;99.90;;;;;;5091191;28;20031;-82
2023/02/20 10:06:19;;;;;;;16.27;10.02;;;3.00;99.90;;;;;;5091313;28;20028;-82
2023/02/20 10:08:49;;;;;;;32.53;15.30;;;3.00;99.90;;;;;;5091389;28;20097;-80
2023/02/20 10:11:30;;;;;;;24.60;13.30;;;2.90;99.90;;;;;;5088856;28;20370;-80
2023/02/20 10:14:26;;;;;;;19.88;10.43;;;2.90;99.90;;;;;;5090902;28;20080;-78
2023/02/20 10:17:14;;;;;;;15.32;9.43;;;2.90;99.90;;;;;;5088421;28;20481;-79
2023/02/20 10:19:51;;;;;;;13.65;8.63;;;2.80;99.90;;;;;;5092286;28;20039;-81
2023/02/20 10:22:32;;;;;;;17.90;10.02;;;2.80;99.90;;;;;;5089841;28;20119;-80
2023/02/20 10:25:17;;;;;;;23.67;10.48;;;2.80;99.90;;;;;;5090137;28;20022;-80
2023/02/20 10:27:57;;;;;;;16.80;9.20;;;2.90;99.90;;;;;;5091184;28;20047;-80
2023/02/20 10:30:28;;;;;;;19.10;9.38;;;2.90;99.90;;;;;;5092495;28;20497;-79
2023/02/20 10:33:28;;;;;;;17.25;8.80;;;2.90;99.90;;;;;;5093394;28;20096;-79
2023/02/20 10:36:12;;;;;;;13.43;8.32;;;2.90;99.90;;;;;;5081760;28;20024;-79
2023/02/20 10:38:48;;;;;;;21.50;11.10;;;2.90;99.90;;;;;;5108154;28;20416;-79
2023/02/20 10:41:32;;;;;;;22.70;11.80;;;2.90;99.90;;;;;;5092480;28;20104;-79
2023/02/20 10:44:06;;;;;;;14.23;8.43;;;3.10;99.90;;;;;;5091129;28;20465;-80
2023/02/20 10:46:39;;;;;;;14.10;8.80;;;3.10;99.90;;;;;;5092829;28;20020;-80
2023/02/20 10:49:12;;;;;;;17.70;8.40;;;3.20;99.90;;;;;;5092088;28;20049;-80
2023/02/20 10:51:41;;;;;;;;;;;3.30;99.90;;;;;;5091958;28;20052;-79
2023/02/20 10:54:11;;;;;;;17.58;8.40;;;3.50;99.90;;;;;;5091205;28;19963;-79
2023/02/20 10:56:44;;;;;;;19.60;10.32;;;3.70;99.90;;;;;;5092123;28;20378;-82
2023/02/20 10:59:24;;;;;;;25.45;12.02;;;3.70;99.90;;;;;;5091506;28;20099;-81
2023/02/20 11:01:54;;;;;;;33.00;16.23;;;3.70;99.90;;;;;;5092146;28;20038;-81
2023/02/20 11:04:24;;;;;;;16.88;9.02;;;3.80;99.90;;;;;;5090557;28;20020;-80
2023/02/20 11:06:52;;;;;;;15.32;8.60;;;3.80;99.90;;;;;;5093020;28;20017;-79
2023/02/20 11:09:18;;;;;;;18.65;9.07;;;3.80;99.90;;;;;;5092976;28;20039;-79
2023/02/20 11:11:46;;;;;;;14.45;7.63;;;3.90;99.90;;;;;;5091640;28;20032;-79
2023/02/20 11:14:17;;;;;;;18.65;9.68;;;4.00;99.90;;;;;;5091291;28;20432;-80
2023/02/20 11:16:57;;;;;;;18.00;9.48;;;4.10;99.90;;;;;;5090705;28;20044;-79
2023/02/20 11:19:37;;;;;;;20.50;8.25;;;4.20;99.90;;;;;;5089951;28;20476;-80
2023/02/20 11:22:03;;;;;;;17.70;7.28;;;4.30;99.90;;;;;;5091325;28;20032;-80
2023/02/20 11:24:32;;;;;;;14.77;9.45;;;4.30;99.90;;;;;;5108641;28;20097;-80
2023/02/20 11:27:09;;;;;;;14.10;8.25;;;4.40;99.90;;;;;;5092229;28;20024;-80
2023/02/20 11:29:47;;;;;;;15.90;7.85;;;4.30;99.90;;;;;;5092660;28;20048;-80
2023/02/20 11:32:33;;;;;;;12.50;6.70;;;4.30;99.90;;;;;;5093492;28;20393;-80
2023/02/20 11:35:13;;;;;;;14.50;7.32;;;4.30;99.90;;;;;;5094373;28;20020;-79
2023/02/20 11:37:39;;;;;;;11.10;6.43;;;4.40;99.90;;;;;;5094517;28;20461;-79
2023/02/20 11:40:16;;;;;;;10.10;5.95;;;4.50;99.90;;;;;;5094699;28;20070;-80
2023/02/20 11:42:43;;;;;;;14.77;8.00;;;4.50;99.90;;;;;;5111837;28;20377;-80
2023/02/20 11:45:15;;;;;;;12.07;6.85;;;4.50;99.90;;;;;;5094738;28;20020;-79
2023/02/20 11:47:42;;;;;;;8.38;6.55;;;4.60;99.90;;;;;;5093261;28;20024;-80
2023/02/20 11:50:14;;;;;;;8.43;5.25;;;4.70;99.90;;;;;;5096165;28;20028;-80
2023/02/20 11:53:04;;;;;;;12.02;6.43;;;4.70;99.90;;;;;;5093238;28;20028;-80
2023/02/20 11:55:29;;;;;;;20.95;10.13;;;4.70;99.90;;;;;;5093416;28;20016;-79
2023/02/20 11:57:55;;;;;;;9.75;5.38;;;4.90;99.90;;;;;;5094223;28;20024;-79
2023/02/20 12:00:26;;;;;;;8.75;4.93;;;4.90;99.90;;;;;;5094461;28;20103;-80
2023/02/20 12:03:13;;;;;;;8.90;4.88;;;5.00;99.90;;;;;;5092847;28;20012;-79
2023/02/20 12:05:44;;;;;;;13.02;8.38;;;5.00;99.90;;;;;;5093815;28;20050;-79
2023/02/20 12:08:47;;;;;;;13.32;6.55;;;5.10;99.90;;;;;;5095946;28;20056;-80
2023/02/20 12:11:16;;;;;;;13.05;6.90;;;5.10;99.90;;;;;;5092738;28;20056;-80
2023/02/20 12:13:44;;;;;;;16.48;7.47;;;5.10;99.90;;;;;;5094878;28;20111;-80
2023/02/20 12:16:37;;;;;;;14.88;7.25;;;5.10;99.90;;;;;;5096123;28;20465;-80
2023/02/20 12:19:17;;;;;;;15.20;6.88;;;5.20;99.90;;;;;;5094874;28;20024;-80
2023/02/20 12:22:21;;;;;;;12.93;6.57;;;5.20;99.90;;;;;;5096088;28;20031;-79
2023/02/20 12:24:53;;;;;;;13.00;6.53;;;5.20;99.90;;;;;;5073345;28;20029;-80
2023/02/20 12:27:33;;;;;;;16.55;8.35;;;5.20;99.90;;;;;;5075049;28;20032;-80
2023/02/20 12:30:17;;;;;;;13.25;7.30;;;5.30;99.90;;;;;;5074464;28;20114;-79
2023/02/20 12:33:07;;;;;;;15.18;7.18;;;5.30;99.90;;;;;;5075517;28;20351;-79
2023/02/20 12:35:35;;;;;;;9.95;6.40;;;5.30;99.90;;;;;;5075161;28;20131;-80
2023/02/20 12:38:25;;;;;;;13.13;7.80;;;5.50;99.90;;;;;;5075239;28;20031;-80
2023/02/20 12:41:06;;;;;;;10.68;7.18;;;5.50;99.90;;;;;;5074881;28;20028;-80
2023/02/20 12:43:44;;;;;;;16.98;8.68;;;5.50;99.90;;;;;;5073858;28;20029;-80
2023/02/20 12:46:23;;;;;;;12.77;9.15;;;5.60;99.90;;;;;;5073729;28;20020;-80
2023/02/20 12:49:08;;;;;;;12.13;7.95;;;5.60;99.90;;;;;;5073685;28;20393;-80
2023/02/20 12:51:45;;;;;;;13.43;8.13;;;5.60;99.90;;;;;;5073712;28;20032;-80
2023/02/20 12:54:43;;;;;;;13.23;8.00;;;5.70;99.90;;;;;;5073868;28;20490;-80
2023/02/20 12:57:21;;;;;;;13.60;8.35;;;5.70;99.90;;;;;;5051374;28;20032;-80
2023/02/20 12:59:57;;;;;;;16.77;9.65;;;5.80;99.90;;;;;;5073545;28;20031;-80
2023/02/20 13:02:40;;;;;;;15.50;9.38;;;5.90;99.90;;;;;;5075517;28;20090;-80
2023/02/20 13:05:10;;;;;;;18.87;11.13;;;5.80;99.90;;;;;;5073851;28;20024;-80
2023/02/20 13:07:45;;;;;;;15.30;8.48;;;5.90;99.90;;;;;;5073850;28;20266;-80